sensor_id;sensor_type;location;lat;lon;timestamp;P1;durP1;ratioP1;P2;durP2;ratioP2
2099;SDS011;1055;48.854;9.302;2022-07-03T00:01:11;12.27;;;3.67;;
2099;SDS011;1055;48.854;9.302;2022-07-03T00:03:37;7.60;;;4.37;;
2099;SDS011;1055;48.854;9.302;2022-07-03T00:06:03;7.83;;;3.37;;
2099;SDS011;1055;48.854;9.302;2022-07-03T00:08:28;9.40;;;3.63;;
2099;SDS011;1055;48.854;9.302;2022-07-03T00:10:54;7.63;;;4.10;;
2099;SDS011;1055;48.854;9.302;2022-07-03T00:13:20;9.00;;;4.50;;
2099;SDS011;1055;48.854;9.302;2022-07-03T00:15:45;7.23;;;4.30;;
2099;SDS011;1055;48.854;9.302;2022-07-03T00:18:11;7.27;;;3.90;;
2099;SDS011;1055;48.854;9.302;2022-07-03T00:20:59;7.87;;;4.17;;
2099;SDS011;1055;48.854;9.302;2022-07-03T00:23:26;6.10;;;3.40;;
2099;SDS011;1055;48.854;9.302;2022-07-03T00:25:54;7.20;;;4.20;;
2099;SDS011;1055;48.854;9.302;2022-07-03T00:28:20;6.53;;;3.80;;
2099;SDS011;1055;48.854;9.302;2022-07-03T00:30:47;7.13;;;3.67;;
2099;SDS011;1055;48.854;9.302;2022-07-03T00:33:14;7.40;;;3.67;;
2099;SDS011;1055;48.854;9.302;2022-07-03T00:35:42;6.63;;;3.70;;
2099;SDS011;1055;48.854;9.302;2022-07-03T00:38:10;10.33;;;3.90;;
2099;SDS011;1055;48.854;9.302;2022-07-03T00:40:36;7.47;;;3.60;;
2099;SDS011;1055;48.854;9.302;2022-07-03T00:43:02;8.83;;;3.93;;
2099;SDS011;1055;48.854;9.302;2022-07-03T00:45:30;7.87;;;3.80;;
2099;SDS011;1055;48.854;9.302;2022-07-03T00:47:59;6.23;;;3.30;;
2099;SDS011;1055;48.854;9.302;2022-07-03T00:50:27;6.93;;;3.63;;
2099;SDS011;1055;48.854;9.302;2022-07-03T00:52:59;8.47;;;3.70;;
2099;SDS011;1055;48.854;9.302;2022-07-03T00:55:26;6.10;;;3.30;;
2099;SDS011;1055;48.854;9.302;2022-07-03T00:57:53;7.60;;;4.10;;
2099;SDS011;1055;48.854;9.302;2022-07-03T01:00:21;7.03;;;3.30;;
2099;SDS011;1055;48.854;9.302;2022-07-03T01:02:55;6.73;;;3.80;;
2099;SDS011;1055;48.854;9.302;2022-07-03T01:05:30;8.60;;;3.90;;
2099;SDS011;1055;48.854;9.302;2022-07-03T01:18:45;6.87;;;3.57;;
2099;SDS011;1055;48.854;9.302;2022-07-03T01:21:30;9.70;;;4.17;;
2099;SDS011;1055;48.854;9.302;2022-07-03T01:24:06;6.13;;;3.40;;
2099;SDS011;1055;48.854;9.302;2022-07-03T01:26:47;7.00;;;4.00;;
2099;SDS011;1055;48.854;9.302;2022-07-03T01:29:21;7.77;;;3.80;;
2099;SDS011;1055;48.854;9.302;2022-07-03T01:31:51;8.83;;;3.37;;
2099;SDS011;1055;48.854;9.302;2022-07-03T01:34:19;8.60;;;3.80;;
2099;SDS011;1055;48.854;9.302;2022-07-03T01:36:47;10.30;;;4.03;;
2099;SDS011;1055;48.854;9.302;2022-07-03T01:39:15;8.00;;;3.67;;
2099;SDS011;1055;48.854;9.302;2022-07-03T01:41:43;9.07;;;4.07;;
2099;SDS011;1055;48.854;9.302;2022-07-03T01:44:12;8.77;;;3.70;;
2099;SDS011;1055;48.854;9.302;2022-07-03T01:46:39;7.83;;;4.00;;
2099;SDS011;1055;48.854;9.302;2022-07-03T01:49:11;13.50;;;4.30;;
2099;SDS011;1055;48.854;9.302;2022-07-03T01:51:38;6.70;;;3.87;;
2099;SDS011;1055;48.854;9.302;2022-07-03T01:54:06;6.50;;;3.50;;
2099;SDS011;1055;48.854;9.302;2022-07-03T01:56:35;7.70;;;4.10;;
2099;SDS011;1055;48.854;9.302;2022-07-03T01:59:01;7.37;;;4.30;;
2099;SDS011;1055;48.854;9.302;2022-07-03T02:09:24;6.70;;;3.80;;
2099;SDS011;1055;48.854;9.302;2022-07-03T02:11:55;7.10;;;3.60;;
2099;SDS011;1055;48.854;9.302;2022-07-03T02:14:23;8.30;;;4.10;;
2099;SDS011;1055;48.854;9.302;2022-07-03T02:19:18;7.23;;;4.10;;
2099;SDS011;1055;48.854;9.302;2022-07-03T02:21:48;7.10;;;3.90;;
2099;SDS011;1055;48.854;9.302;2022-07-03T02:24:17;8.87;;;4.60;;
2099;SDS011;1055;48.854;9.302;2022-07-03T02:27:00;7.43;;;3.60;;
2099;SDS011;1055;48.854;9.302;2022-07-03T02:29:43;7.37;;;3.80;;
2099;SDS011;1055;48.854;9.302;2022-07-03T02:32:32;11.10;;;3.90;;
2099;SDS011;1055;48.854;9.302;2022-07-03T02:35:07;6.97;;;3.87;;
2099;SDS011;1055;48.854;9.302;2022-07-03T02:38:18;7.60;;;3.70;;
2099;SDS011;1055;48.854;9.302;2022-07-03T02:40:42;7.60;;;3.37;;
2099;SDS011;1055;48.854;9.302;2022-07-03T02:43:14;7.27;;;3.93;;
2099;SDS011;1055;48.854;9.302;2022-07-03T02:48:43;7.20;;;4.00;;
2099;SDS011;1055;48.854;9.302;2022-07-03T02:51:13;7.70;;;3.53;;
2099;SDS011;1055;48.854;9.302;2022-07-03T02:53:49;8.63;;;3.73;;
2099;SDS011;1055;48.854;9.302;2022-07-03T03:03:02;7.20;;;3.60;;
2099;SDS011;1055;48.854;9.302;2022-07-03T03:05:07;6.70;;;3.67;;
2099;SDS011;1055;48.854;9.302;2022-07-03T03:10:14;7.20;;;3.93;;
2099;SDS011;1055;48.854;9.302;2022-07-03T03:12:43;7.13;;;3.90;;
2099;SDS011;1055;48.854;9.302;2022-07-03T03:15:12;6.80;;;3.57;;
2099;SDS011;1055;48.854;9.302;2022-07-03T03:17:45;8.90;;;4.20;;
2099;SDS011;1055;48.854;9.302;2022-07-03T03:20:16;7.77;;;4.70;;
2099;SDS011;1055;48.854;9.302;2022-07-03T03:25:33;8.93;;;4.00;;
2099;SDS011;1055;48.854;9.302;2022-07-03T03:27:59;6.60;;;3.40;;
2099;SDS011;1055;48.854;9.302;2022-07-03T03:30:25;8.50;;;4.17;;
2099;SDS011;1055;48.854;9.302;2022-07-03T03:32:50;8.97;;;4.60;;
2099;SDS011;1055;48.854;9.302;2022-07-03T03:35:16;7.47;;;3.90;;
2099;SDS011;1055;48.854;9.302;2022-07-03T03:37:42;7.63;;;4.17;;
2099;SDS011;1055;48.854;9.302;2022-07-03T03:40:10;8.97;;;4.30;;
2099;SDS011;1055;48.854;9.302;2022-07-03T03:42:36;7.67;;;3.77;;
2099;SDS011;1055;48.854;9.302;2022-07-03T03:45:02;7.23;;;3.90;;
2099;SDS011;1055;48.854;9.302;2022-07-03T03:47:28;7.60;;;4.10;;
2099;SDS011;1055;48.854;9.302;2022-07-03T03:49:54;7.77;;;3.50;;
2099;SDS011;1055;48.854;9.302;2022-07-03T03:52:20;6.63;;;3.67;;
2099;SDS011;1055;48.854;9.302;2022-07-03T03:54:46;7.80;;;4.30;;
2099;SDS011;1055;48.854;9.302;2022-07-03T03:57:16;6.20;;;3.20;;
2099;SDS011;1055;48.854;9.302;2022-07-03T03:59:41;6.60;;;3.40;;
2099;SDS011;1055;48.854;9.302;2022-07-03T04:02:07;7.60;;;3.50;;
2099;SDS011;1055;48.854;9.302;2022-07-03T04:04:33;9.17;;;3.70;;
2099;SDS011;1055;48.854;9.302;2022-07-03T04:06:58;7.47;;;3.63;;
2099;SDS011;1055;48.854;9.302;2022-07-03T04:09:24;8.77;;;4.43;;
2099;SDS011;1055;48.854;9.302;2022-07-03T04:11:49;9.23;;;3.60;;
2099;SDS011;1055;48.854;9.302;2022-07-03T04:14:15;6.93;;;3.80;;
2099;SDS011;1055;48.854;9.302;2022-07-03T04:16:40;7.03;;;3.80;;
2099;SDS011;1055;48.854;9.302;2022-07-03T04:19:06;8.50;;;4.30;;
2099;SDS011;1055;48.854;9.302;2022-07-03T04:21:32;9.50;;;3.37;;
2099;SDS011;1055;48.854;9.302;2022-07-03T04:23:57;8.60;;;3.90;;
2099;SDS011;1055;48.854;9.302;2022-07-03T04:26:23;8.10;;;4.03;;
2099;SDS011;1055;48.854;9.302;2022-07-03T04:28:48;7.03;;;3.57;;
2099;SDS011;1055;48.854;9.302;2022-07-03T04:31:14;7.33;;;3.40;;
2099;SDS011;1055;48.854;9.302;2022-07-03T04:33:40;9.63;;;3.47;;
2099;SDS011;1055;48.854;9.302;2022-07-03T04:36:05;9.90;;;3.60;;
2099;SDS011;1055;48.854;9.302;2022-07-03T04:38:31;6.67;;;3.10;;
2099;SDS011;1055;48.854;9.302;2022-07-03T04:40:57;7.50;;;3.63;;
2099;SDS011;1055;48.854;9.302;2022-07-03T04:43:22;7.60;;;3.60;;
2099;SDS011;1055;48.854;9.302;2022-07-03T04:45:48;7.90;;;3.30;;
2099;SDS011;1055;48.854;9.302;2022-07-03T04:48:14;6.50;;;3.67;;
2099;SDS011;1055;48.854;9.302;2022-07-03T04:50:40;6.87;;;3.80;;
2099;SDS011;1055;48.854;9.302;2022-07-03T04:53:05;10.97;;;3.70;;
2099;SDS011;1055;48.854;9.302;2022-07-03T04:55:31;7.70;;;3.53;;
2099;SDS011;1055;48.854;9.302;2022-07-03T04:57:57;7.33;;;3.10;;
2099;SDS011;1055;48.854;9.302;2022-07-03T05:00:22;6.20;;;3.10;;
2099;SDS011;1055;48.854;9.302;2022-07-03T05:02:48;6.80;;;3.37;;
2099;SDS011;1055;48.854;9.302;2022-07-03T05:05:13;6.30;;;3.37;;
2099;SDS011;1055;48.854;9.302;2022-07-03T05:07:39;7.10;;;3.70;;
2099;SDS011;1055;48.854;9.302;2022-07-03T05:10:05;6.53;;;3.10;;
2099;SDS011;1055;48.854;9.302;2022-07-03T05:12:31;11.70;;;3.37;;
2099;SDS011;1055;48.854;9.302;2022-07-03T05:14:56;8.30;;;3.80;;
2099;SDS011;1055;48.854;9.302;2022-07-03T05:17:22;8.20;;;3.50;;
2099;SDS011;1055;48.854;9.302;2022-07-03T05:19:48;7.13;;;3.37;;
2099;SDS011;1055;48.854;9.302;2022-07-03T05:22:33;6.40;;;3.50;;
2099;SDS011;1055;48.854;9.302;2022-07-03T05:24:59;6.20;;;3.10;;
2099;SDS011;1055;48.854;9.302;2022-07-03T05:27:24;8.63;;;3.40;;
2099;SDS011;1055;48.854;9.302;2022-07-03T05:29:50;9.73;;;3.30;;
2099;SDS011;1055;48.854;9.302;2022-07-03T05:32:15;6.37;;;3.60;;
2099;SDS011;1055;48.854;9.302;2022-07-03T05:34:41;5.90;;;3.00;;
2099;SDS011;1055;48.854;9.302;2022-07-03T05:37:07;7.20;;;3.23;;
2099;SDS011;1055;48.854;9.302;2022-07-03T05:39:32;7.40;;;3.60;;
2099;SDS011;1055;48.854;9.302;2022-07-03T05:41:58;6.73;;;3.40;;
2099;SDS011;1055;48.854;9.302;2022-07-03T05:44:24;6.90;;;3.33;;
2099;SDS011;1055;48.854;9.302;2022-07-03T05:46:49;5.93;;;3.10;;
2099;SDS011;1055;48.854;9.302;2022-07-03T05:49:16;9.00;;;3.13;;
2099;SDS011;1055;48.854;9.302;2022-07-03T05:51:42;6.30;;;3.20;;
2099;SDS011;1055;48.854;9.302;2022-07-03T05:54:07;6.40;;;2.80;;
2099;SDS011;1055;48.854;9.302;2022-07-03T05:56:34;6.10;;;3.80;;
2099;SDS011;1055;48.854;9.302;2022-07-03T05:59:00;9.60;;;3.80;;
2099;SDS011;1055;48.854;9.302;2022-07-03T06:01:25;8.20;;;3.63;;
2099;SDS011;1055;48.854;9.302;2022-07-03T06:03:51;6.50;;;2.73;;
2099;SDS011;1055;48.854;9.302;2022-07-03T06:06:17;5.90;;;3.00;;
2099;SDS011;1055;48.854;9.302;2022-07-03T06:08:42;6.67;;;2.80;;
2099;SDS011;1055;48.854;9.302;2022-07-03T06:11:08;6.33;;;3.20;;
2099;SDS011;1055;48.854;9.302;2022-07-03T06:13:34;6.40;;;3.33;;
2099;SDS011;1055;48.854;9.302;2022-07-03T06:15:59;6.87;;;3.60;;
2099;SDS011;1055;48.854;9.302;2022-07-03T06:18:25;8.53;;;3.57;;
2099;SDS011;1055;48.854;9.302;2022-07-03T06:20:51;6.97;;;3.17;;
2099;SDS011;1055;48.854;9.302;2022-07-03T06:23:16;8.37;;;3.00;;
2099;SDS011;1055;48.854;9.302;2022-07-03T06:25:42;6.93;;;3.00;;
2099;SDS011;1055;48.854;9.302;2022-07-03T06:28:08;7.20;;;2.70;;
2099;SDS011;1055;48.854;9.302;2022-07-03T06:30:33;6.10;;;3.10;;
2099;SDS011;1055;48.854;9.302;2022-07-03T06:32:59;8.27;;;3.13;;
2099;SDS011;1055;48.854;9.302;2022-07-03T06:35:25;6.40;;;2.90;;
2099;SDS011;1055;48.854;9.302;2022-07-03T06:37:50;6.03;;;3.00;;
2099;SDS011;1055;48.854;9.302;2022-07-03T06:40:16;8.57;;;3.33;;
2099;SDS011;1055;48.854;9.302;2022-07-03T06:42:42;6.47;;;3.00;;
2099;SDS011;1055;48.854;9.302;2022-07-03T06:45:08;6.13;;;2.90;;
2099;SDS011;1055;48.854;9.302;2022-07-03T06:47:37;5.93;;;2.93;;
2099;SDS011;1055;48.854;9.302;2022-07-03T06:50:04;6.80;;;2.63;;
2099;SDS011;1055;48.854;9.302;2022-07-03T06:52:30;6.80;;;3.70;;
2099;SDS011;1055;48.854;9.302;2022-07-03T06:54:56;10.53;;;3.10;;
2099;SDS011;1055;48.854;9.302;2022-07-03T06:57:22;8.20;;;2.90;;
2099;SDS011;1055;48.854;9.302;2022-07-03T06:59:47;5.80;;;2.90;;
2099;SDS011;1055;48.854;9.302;2022-07-03T07:02:13;8.27;;;2.67;;
2099;SDS011;1055;48.854;9.302;2022-07-03T07:04:39;5.73;;;2.87;;
2099;SDS011;1055;48.854;9.302;2022-07-03T07:07:05;6.40;;;3.43;;
2099;SDS011;1055;48.854;9.302;2022-07-03T07:09:31;6.90;;;3.00;;
2099;SDS011;1055;48.854;9.302;2022-07-03T07:11:56;6.23;;;2.87;;
2099;SDS011;1055;48.854;9.302;2022-07-03T07:14:22;6.23;;;3.10;;
2099;SDS011;1055;48.854;9.302;2022-07-03T07:16:47;6.90;;;2.77;;
2099;SDS011;1055;48.854;9.302;2022-07-03T07:19:13;5.83;;;2.70;;
2099;SDS011;1055;48.854;9.302;2022-07-03T07:21:39;7.57;;;2.80;;
2099;SDS011;1055;48.854;9.302;2022-07-03T07:24:04;6.03;;;3.00;;
2099;SDS011;1055;48.854;9.302;2022-07-03T07:26:30;6.37;;;3.00;;
2099;SDS011;1055;48.854;9.302;2022-07-03T07:28:56;5.80;;;2.80;;
2099;SDS011;1055;48.854;9.302;2022-07-03T07:31:21;7.70;;;3.03;;
2099;SDS011;1055;48.854;9.302;2022-07-03T07:33:48;6.60;;;2.83;;
2099;SDS011;1055;48.854;9.302;2022-07-03T07:36:14;6.47;;;2.80;;
2099;SDS011;1055;48.854;9.302;2022-07-03T07:38:39;6.50;;;3.00;;
2099;SDS011;1055;48.854;9.302;2022-07-03T07:41:05;6.23;;;2.80;;
2099;SDS011;1055;48.854;9.302;2022-07-03T07:43:30;6.57;;;2.40;;
2099;SDS011;1055;48.854;9.302;2022-07-03T07:45:56;8.20;;;2.83;;
2099;SDS011;1055;48.854;9.302;2022-07-03T07:48:22;5.87;;;3.00;;
2099;SDS011;1055;48.854;9.302;2022-07-03T07:50:47;6.00;;;3.00;;
2099;SDS011;1055;48.854;9.302;2022-07-03T07:53:15;5.43;;;2.67;;
2099;SDS011;1055;48.854;9.302;2022-07-03T07:55:41;6.50;;;2.43;;
2099;SDS011;1055;48.854;9.302;2022-07-03T07:58:07;5.93;;;2.80;;
2099;SDS011;1055;48.854;9.302;2022-07-03T08:00:33;5.70;;;2.67;;
2099;SDS011;1055;48.854;9.302;2022-07-03T08:02:59;5.70;;;2.47;;
2099;SDS011;1055;48.854;9.302;2022-07-03T08:05:43;5.87;;;2.53;;
2099;SDS011;1055;48.854;9.302;2022-07-03T08:08:09;6.80;;;2.60;;
2099;SDS011;1055;48.854;9.302;2022-07-03T08:10:40;6.10;;;2.70;;
2099;SDS011;1055;48.854;9.302;2022-07-03T08:13:18;5.70;;;2.30;;
2099;SDS011;1055;48.854;9.302;2022-07-03T08:15:44;6.27;;;2.20;;
2099;SDS011;1055;48.854;9.302;2022-07-03T08:18:12;5.30;;;2.43;;
2099;SDS011;1055;48.854;9.302;2022-07-03T08:20:38;7.43;;;2.80;;
2099;SDS011;1055;48.854;9.302;2022-07-03T08:23:04;8.50;;;2.97;;
2099;SDS011;1055;48.854;9.302;2022-07-03T08:25:30;5.50;;;2.60;;
2099;SDS011;1055;48.854;9.302;2022-07-03T08:27:56;5.57;;;2.70;;
2099;SDS011;1055;48.854;9.302;2022-07-03T08:30:22;6.57;;;2.80;;
2099;SDS011;1055;48.854;9.302;2022-07-03T08:32:50;5.17;;;2.20;;
2099;SDS011;1055;48.854;9.302;2022-07-03T08:35:18;4.97;;;2.03;;
2099;SDS011;1055;48.854;9.302;2022-07-03T08:37:44;5.03;;;2.00;;
2099;SDS011;1055;48.854;9.302;2022-07-03T08:40:12;6.10;;;2.07;;
2099;SDS011;1055;48.854;9.302;2022-07-03T08:42:52;5.40;;;2.03;;
2099;SDS011;1055;48.854;9.302;2022-07-03T08:45:20;6.43;;;2.47;;
2099;SDS011;1055;48.854;9.302;2022-07-03T08:47:48;5.20;;;2.10;;
2099;SDS011;1055;48.854;9.302;2022-07-03T08:50:15;6.40;;;1.90;;
2099;SDS011;1055;48.854;9.302;2022-07-03T08:52:45;7.10;;;2.00;;
2099;SDS011;1055;48.854;9.302;2022-07-03T08:55:12;6.03;;;2.57;;
2099;SDS011;1055;48.854;9.302;2022-07-03T08:57:39;6.53;;;2.00;;
2099;SDS011;1055;48.854;9.302;2022-07-03T09:00:07;4.83;;;2.10;;
2099;SDS011;1055;48.854;9.302;2022-07-03T09:02:34;5.33;;;2.07;;
2099;SDS011;1055;48.854;9.302;2022-07-03T09:05:01;4.90;;;1.97;;
2099;SDS011;1055;48.854;9.302;2022-07-03T09:07:27;6.70;;;1.83;;
2099;SDS011;1055;48.854;9.302;2022-07-03T09:09:59;4.90;;;1.60;;
2099;SDS011;1055;48.854;9.302;2022-07-03T09:12:25;4.90;;;1.60;;
2099;SDS011;1055;48.854;9.302;2022-07-03T09:14:50;5.00;;;1.70;;
2099;SDS011;1055;48.854;9.302;2022-07-03T09:17:16;5.80;;;2.13;;
2099;SDS011;1055;48.854;9.302;2022-07-03T09:19:43;4.80;;;1.57;;
2099;SDS011;1055;48.854;9.302;2022-07-03T09:24:54;6.37;;;1.77;;
2099;SDS011;1055;48.854;9.302;2022-07-03T09:27:28;5.07;;;1.77;;
2099;SDS011;1055;48.854;9.302;2022-07-03T09:30:00;6.57;;;1.57;;
2099;SDS011;1055;48.854;9.302;2022-07-03T09:35:25;4.80;;;1.70;;
2099;SDS011;1055;48.854;9.302;2022-07-03T09:37:55;5.90;;;1.57;;
2099;SDS011;1055;48.854;9.302;2022-07-03T09:40:45;4.40;;;1.33;;
2099;SDS011;1055;48.854;9.302;2022-07-03T09:43:11;4.70;;;1.50;;
2099;SDS011;1055;48.854;9.302;2022-07-03T09:45:54;5.17;;;1.63;;
2099;SDS011;1055;48.854;9.302;2022-07-03T09:56:22;4.50;;;1.50;;
2099;SDS011;1055;48.854;9.302;2022-07-03T10:01:39;4.90;;;1.80;;
2099;SDS011;1055;48.854;9.302;2022-07-03T10:06:48;5.57;;;2.20;;
2099;SDS011;1055;48.854;9.302;2022-07-03T10:09:27;5.47;;;1.57;;
2099;SDS011;1055;48.854;9.302;2022-07-03T10:11:54;4.87;;;1.80;;
2099;SDS011;1055;48.854;9.302;2022-07-03T10:14:22;4.90;;;1.63;;
2099;SDS011;1055;48.854;9.302;2022-07-03T10:16:49;5.87;;;1.50;;
2099;SDS011;1055;48.854;9.302;2022-07-03T10:19:20;4.60;;;1.60;;
2099;SDS011;1055;48.854;9.302;2022-07-03T10:24:46;4.67;;;1.30;;
2099;SDS011;1055;48.854;9.302;2022-07-03T10:27:13;5.30;;;1.40;;
2099;SDS011;1055;48.854;9.302;2022-07-03T10:29:39;4.70;;;1.67;;
2099;SDS011;1055;48.854;9.302;2022-07-03T10:32:06;4.30;;;1.20;;
2099;SDS011;1055;48.854;9.302;2022-07-03T10:34:33;5.10;;;1.53;;
2099;SDS011;1055;48.854;9.302;2022-07-03T10:37:03;4.40;;;1.40;;
2099;SDS011;1055;48.854;9.302;2022-07-03T10:39:38;6.17;;;1.63;;
2099;SDS011;1055;48.854;9.302;2022-07-03T10:42:06;4.60;;;1.50;;
2099;SDS011;1055;48.854;9.302;2022-07-03T10:45:08;5.30;;;2.07;;
2099;SDS011;1055;48.854;9.302;2022-07-03T10:47:38;5.97;;;1.30;;
2099;SDS011;1055;48.854;9.302;2022-07-03T10:50:21;5.53;;;1.93;;
2099;SDS011;1055;48.854;9.302;2022-07-03T10:52:48;4.80;;;1.53;;
2099;SDS011;1055;48.854;9.302;2022-07-03T10:55:15;6.13;;;1.50;;
2099;SDS011;1055;48.854;9.302;2022-07-03T10:57:43;4.70;;;1.40;;
2099;SDS011;1055;48.854;9.302;2022-07-03T11:00:27;5.10;;;1.60;;
2099;SDS011;1055;48.854;9.302;2022-07-03T11:02:53;6.37;;;1.77;;
2099;SDS011;1055;48.854;9.302;2022-07-03T11:05:25;4.90;;;1.43;;
2099;SDS011;1055;48.854;9.302;2022-07-03T11:15:27;4.70;;;1.67;;
2099;SDS011;1055;48.854;9.302;2022-07-03T11:18:06;5.47;;;1.70;;
2099;SDS011;1055;48.854;9.302;2022-07-03T11:23:23;5.07;;;1.40;;
2099;SDS011;1055;48.854;9.302;2022-07-03T11:25:59;4.90;;;1.80;;
2099;SDS011;1055;48.854;9.302;2022-07-03T11:36:10;4.50;;;1.60;;
2099;SDS011;1055;48.854;9.302;2022-07-03T11:38:43;4.83;;;2.00;;
2099;SDS011;1055;48.854;9.302;2022-07-03T11:41:11;6.00;;;1.80;;
2099;SDS011;1055;48.854;9.302;2022-07-03T11:43:45;6.27;;;2.00;;
2099;SDS011;1055;48.854;9.302;2022-07-03T11:46:16;5.40;;;1.87;;
2099;SDS011;1055;48.854;9.302;2022-07-03T11:48:46;5.07;;;1.67;;
2099;SDS011;1055;48.854;9.302;2022-07-03T11:51:13;6.20;;;2.00;;
2099;SDS011;1055;48.854;9.302;2022-07-03T11:53:39;4.70;;;1.60;;
2099;SDS011;1055;48.854;9.302;2022-07-03T11:56:06;4.80;;;1.70;;
2099;SDS011;1055;48.854;9.302;2022-07-03T11:58:43;7.17;;;2.00;;
2099;SDS011;1055;48.854;9.302;2022-07-03T12:03:48;5.57;;;1.87;;
2099;SDS011;1055;48.854;9.302;2022-07-03T12:06:14;4.70;;;1.70;;
2099;SDS011;1055;48.854;9.302;2022-07-03T12:08:41;4.60;;;1.70;;
2099;SDS011;1055;48.854;9.302;2022-07-03T12:11:11;6.27;;;2.00;;
2099;SDS011;1055;48.854;9.302;2022-07-03T12:13:38;4.70;;;1.80;;
2099;SDS011;1055;48.854;9.302;2022-07-03T12:18:50;4.93;;;1.90;;
2099;SDS011;1055;48.854;9.302;2022-07-03T12:21:17;5.67;;;1.80;;
2099;SDS011;1055;48.854;9.302;2022-07-03T12:26:11;6.30;;;1.90;;
2099;SDS011;1055;48.854;9.302;2022-07-03T12:28:37;5.10;;;1.87;;
2099;SDS011;1055;48.854;9.302;2022-07-03T12:31:04;5.33;;;2.00;;
2099;SDS011;1055;48.854;9.302;2022-07-03T12:33:30;5.80;;;1.90;;
2099;SDS011;1055;48.854;9.302;2022-07-03T12:36:03;5.10;;;1.70;;
2099;SDS011;1055;48.854;9.302;2022-07-03T12:38:30;5.97;;;1.70;;
2099;SDS011;1055;48.854;9.302;2022-07-03T12:41:05;5.20;;;1.63;;
2099;SDS011;1055;48.854;9.302;2022-07-03T12:43:41;5.30;;;1.70;;
2099;SDS011;1055;48.854;9.302;2022-07-03T12:46:32;6.57;;;2.17;;
2099;SDS011;1055;48.854;9.302;2022-07-03T12:49:00;6.03;;;1.90;;
2099;SDS011;1055;48.854;9.302;2022-07-03T12:51:46;5.77;;;2.10;;
2099;SDS011;1055;48.854;9.302;2022-07-03T12:54:15;5.40;;;1.90;;
2099;SDS011;1055;48.854;9.302;2022-07-03T12:57:01;5.30;;;1.93;;
2099;SDS011;1055;48.854;9.302;2022-07-03T13:02:27;5.07;;;1.80;;
2099;SDS011;1055;48.854;9.302;2022-07-03T13:04:53;5.13;;;1.63;;
2099;SDS011;1055;48.854;9.302;2022-07-03T13:07:19;5.53;;;1.90;;
2099;SDS011;1055;48.854;9.302;2022-07-03T13:09:51;4.97;;;1.73;;
2099;SDS011;1055;48.854;9.302;2022-07-03T13:12:21;4.97;;;1.70;;
2099;SDS011;1055;48.854;9.302;2022-07-03T13:14:56;5.00;;;1.90;;
2099;SDS011;1055;48.854;9.302;2022-07-03T13:20:16;5.20;;;1.80;;
2099;SDS011;1055;48.854;9.302;2022-07-03T13:22:42;6.70;;;2.20;;
2099;SDS011;1055;48.854;9.302;2022-07-03T13:25:08;6.03;;;2.00;;
2099;SDS011;1055;48.854;9.302;2022-07-03T13:27:33;5.60;;;1.90;;
2099;SDS011;1055;48.854;9.302;2022-07-03T13:29:59;5.03;;;2.03;;
2099;SDS011;1055;48.854;9.302;2022-07-03T13:32:25;5.57;;;1.80;;
2099;SDS011;1055;48.854;9.302;2022-07-03T13:34:51;4.90;;;1.60;;
2099;SDS011;1055;48.854;9.302;2022-07-03T13:37:16;6.87;;;1.97;;
2099;SDS011;1055;48.854;9.302;2022-07-03T13:39:42;5.90;;;2.07;;
2099;SDS011;1055;48.854;9.302;2022-07-03T13:42:07;5.20;;;1.73;;
2099;SDS011;1055;48.854;9.302;2022-07-03T13:44:35;5.70;;;1.90;;
2099;SDS011;1055;48.854;9.302;2022-07-03T13:47:02;5.40;;;1.90;;
2099;SDS011;1055;48.854;9.302;2022-07-03T13:49:31;5.10;;;1.70;;
2099;SDS011;1055;48.854;9.302;2022-07-03T13:51:57;5.40;;;1.97;;
2099;SDS011;1055;48.854;9.302;2022-07-03T13:54:23;9.17;;;1.70;;
2099;SDS011;1055;48.854;9.302;2022-07-03T13:56:48;6.17;;;1.90;;
2099;SDS011;1055;48.854;9.302;2022-07-03T13:59:15;6.17;;;1.87;;
2099;SDS011;1055;48.854;9.302;2022-07-03T14:01:41;5.00;;;1.80;;
2099;SDS011;1055;48.854;9.302;2022-07-03T14:04:07;5.60;;;2.10;;
2099;SDS011;1055;48.854;9.302;2022-07-03T14:06:33;5.40;;;1.70;;
2099;SDS011;1055;48.854;9.302;2022-07-03T14:09:00;5.73;;;2.07;;
2099;SDS011;1055;48.854;9.302;2022-07-03T14:11:26;5.83;;;2.10;;
2099;SDS011;1055;48.854;9.302;2022-07-03T14:13:52;5.00;;;1.90;;
2099;SDS011;1055;48.854;9.302;2022-07-03T14:16:17;5.10;;;1.90;;
2099;SDS011;1055;48.854;9.302;2022-07-03T14:18:43;5.30;;;1.83;;
2099;SDS011;1055;48.854;9.302;2022-07-03T14:21:09;4.80;;;1.83;;
2099;SDS011;1055;48.854;9.302;2022-07-03T14:23:35;5.20;;;2.00;;
2099;SDS011;1055;48.854;9.302;2022-07-03T14:26:02;5.20;;;2.03;;
2099;SDS011;1055;48.854;9.302;2022-07-03T14:28:28;7.27;;;1.73;;
2099;SDS011;1055;48.854;9.302;2022-07-03T14:31:12;5.03;;;2.00;;
2099;SDS011;1055;48.854;9.302;2022-07-03T14:33:53;5.83;;;1.67;;
2099;SDS011;1055;48.854;9.302;2022-07-03T14:36:20;6.63;;;1.63;;
2099;SDS011;1055;48.854;9.302;2022-07-03T14:38:46;5.20;;;1.93;;
2099;SDS011;1055;48.854;9.302;2022-07-03T14:41:12;5.40;;;2.27;;
2099;SDS011;1055;48.854;9.302;2022-07-03T14:43:38;5.40;;;2.13;;
2099;SDS011;1055;48.854;9.302;2022-07-03T14:46:03;5.10;;;2.10;;
2099;SDS011;1055;48.854;9.302;2022-07-03T14:48:29;5.57;;;1.87;;
2099;SDS011;1055;48.854;9.302;2022-07-03T14:50:55;5.20;;;1.80;;
2099;SDS011;1055;48.854;9.302;2022-07-03T14:53:21;7.97;;;2.20;;
2099;SDS011;1055;48.854;9.302;2022-07-03T14:55:47;5.33;;;1.60;;
2099;SDS011;1055;48.854;9.302;2022-07-03T14:58:19;6.00;;;1.80;;
2099;SDS011;1055;48.854;9.302;2022-07-03T15:00:51;6.77;;;2.00;;
2099;SDS011;1055;48.854;9.302;2022-07-03T15:03:32;5.30;;;1.83;;
2099;SDS011;1055;48.854;9.302;2022-07-03T15:06:00;5.30;;;1.93;;
2099;SDS011;1055;48.854;9.302;2022-07-03T15:09:16;5.67;;;1.90;;
2099;SDS011;1055;48.854;9.302;2022-07-03T15:11:31;5.10;;;1.83;;
2099;SDS011;1055;48.854;9.302;2022-07-03T15:14:17;8.10;;;2.07;;
2099;SDS011;1055;48.854;9.302;2022-07-03T15:16:46;5.60;;;2.20;;
2099;SDS011;1055;48.854;9.302;2022-07-03T15:19:14;5.20;;;1.80;;
2099;SDS011;1055;48.854;9.302;2022-07-03T15:21:43;5.17;;;1.90;;
2099;SDS011;1055;48.854;9.302;2022-07-03T15:24:10;5.20;;;1.80;;
2099;SDS011;1055;48.854;9.302;2022-07-03T15:26:37;6.30;;;2.17;;
2099;SDS011;1055;48.854;9.302;2022-07-03T15:29:05;5.20;;;1.63;;
2099;SDS011;1055;48.854;9.302;2022-07-03T15:31:34;5.00;;;1.90;;
2099;SDS011;1055;48.854;9.302;2022-07-03T15:34:02;4.67;;;1.60;;
2099;SDS011;1055;48.854;9.302;2022-07-03T15:36:29;5.40;;;1.90;;
2099;SDS011;1055;48.854;9.302;2022-07-03T15:39:05;7.63;;;2.20;;
2099;SDS011;1055;48.854;9.302;2022-07-03T15:41:41;7.23;;;1.80;;
2099;SDS011;1055;48.854;9.302;2022-07-03T15:44:31;5.40;;;1.93;;
2099;SDS011;1055;48.854;9.302;2022-07-03T15:49:57;5.30;;;1.67;;
2099;SDS011;1055;48.854;9.302;2022-07-03T15:52:24;5.77;;;1.90;;
2099;SDS011;1055;48.854;9.302;2022-07-03T15:55:02;5.20;;;1.80;;
2099;SDS011;1055;48.854;9.302;2022-07-03T16:00:16;5.37;;;2.20;;
2099;SDS011;1055;48.854;9.302;2022-07-03T16:05:44;5.30;;;1.80;;
2099;SDS011;1055;48.854;9.302;2022-07-03T16:08:12;4.80;;;1.77;;
2099;SDS011;1055;48.854;9.302;2022-07-03T16:10:39;4.87;;;1.70;;
2099;SDS011;1055;48.854;9.302;2022-07-03T16:13:06;5.37;;;1.70;;
2099;SDS011;1055;48.854;9.302;2022-07-03T16:15:36;5.00;;;1.80;;
2099;SDS011;1055;48.854;9.302;2022-07-03T16:18:03;4.73;;;1.53;;
2099;SDS011;1055;48.854;9.302;2022-07-03T16:20:29;7.43;;;2.20;;
2099;SDS011;1055;48.854;9.302;2022-07-03T16:22:59;5.40;;;2.00;;
2099;SDS011;1055;48.854;9.302;2022-07-03T16:25:33;5.43;;;1.57;;
2099;SDS011;1055;48.854;9.302;2022-07-03T16:28:01;5.13;;;1.60;;
2099;SDS011;1055;48.854;9.302;2022-07-03T16:30:29;5.30;;;2.20;;
2099;SDS011;1055;48.854;9.302;2022-07-03T16:32:56;5.93;;;1.70;;
2099;SDS011;1055;48.854;9.302;2022-07-03T16:35:26;8.00;;;2.00;;
2099;SDS011;1055;48.854;9.302;2022-07-03T16:38:02;5.53;;;1.90;;
2099;SDS011;1055;48.854;9.302;2022-07-03T16:40:29;4.77;;;1.50;;
2099;SDS011;1055;48.854;9.302;2022-07-03T16:42:57;5.23;;;1.73;;
2099;SDS011;1055;48.854;9.302;2022-07-03T16:45:26;6.03;;;1.50;;
2099;SDS011;1055;48.854;9.302;2022-07-03T16:47:55;5.00;;;1.80;;
2099;SDS011;1055;48.854;9.302;2022-07-03T16:50:24;4.90;;;1.60;;
2099;SDS011;1055;48.854;9.302;2022-07-03T16:52:53;5.97;;;1.93;;
2099;SDS011;1055;48.854;9.302;2022-07-03T16:55:19;4.70;;;1.60;;
2099;SDS011;1055;48.854;9.302;2022-07-03T16:57:47;5.43;;;1.57;;
2099;SDS011;1055;48.854;9.302;2022-07-03T17:00:20;5.10;;;1.70;;
2099;SDS011;1055;48.854;9.302;2022-07-03T17:02:47;6.17;;;1.77;;